sensor_id;sensor_type;location;lat;lon;timestamp;temperature;humidity
20337;DHT22;10326;53.660;10.200;2023-11-21T00:01:32;12.70;94.90
20337;DHT22;10326;53.660;10.200;2023-11-21T00:03:59;12.70;94.60
20337;DHT22;10326;53.660;10.200;2023-11-21T00:06:28;12.70;94.50
20337;DHT22;10326;53.660;10.200;2023-11-21T00:08:56;12.60;94.50
20337;DHT22;10326;53.660;10.200;2023-11-21T00:11:23;12.60;94.50
20337;DHT22;10326;53.660;10.200;2023-11-21T00:13:50;12.60;94.50
20337;DHT22;10326;53.660;10.200;2023-11-21T00:16:17;12.60;94.40
20337;DHT22;10326;53.660;10.200;2023-11-21T00:18:44;12.60;94.40
20337;DHT22;10326;53.660;10.200;2023-11-21T00:21:12;12.50;94.40
20337;DHT22;10326;53.660;10.200;2023-11-21T00:23:41;12.50;94.40
20337;DHT22;10326;53.660;10.200;2023-11-21T00:26:08;12.40;94.40
20337;DHT22;10326;53.660;10.200;2023-11-21T00:28:35;12.40;94.40
20337;DHT22;10326;53.660;10.200;2023-11-21T00:31:03;12.40;94.40
20337;DHT22;10326;53.660;10.200;2023-11-21T00:33:30;12.40;94.40
20337;DHT22;10326;53.660;10.200;2023-11-21T00:35:58;12.30;94.30
20337;DHT22;10326;53.660;10.200;2023-11-21T00:38:26;12.30;94.30
20337;DHT22;10326;53.660;10.200;2023-11-21T00:40:54;12.30;94.40
20337;DHT22;10326;53.660;10.200;2023-11-21T00:43:22;12.30;94.40
20337;DHT22;10326;53.660;10.200;2023-11-21T00:45:49;12.20;94.30
20337;DHT22;10326;53.660;10.200;2023-11-21T00:48:17;12.20;94.30
20337;DHT22;10326;53.660;10.200;2023-11-21T00:50:44;12.20;94.30
20337;DHT22;10326;53.660;10.200;2023-11-21T00:53:11;12.20;94.30
20337;DHT22;10326;53.660;10.200;2023-11-21T00:55:38;12.20;94.30
20337;DHT22;10326;53.660;10.200;2023-11-21T00:58:07;12.10;94.30
20337;DHT22;10326;53.660;10.200;2023-11-21T01:00:35;12.10;94.30
20337;DHT22;10326;53.660;10.200;2023-11-21T01:03:05;12.10;94.30
20337;DHT22;10326;53.660;10.200;2023-11-21T01:05:35;12.00;94.20
20337;DHT22;10326;53.660;10.200;2023-11-21T01:08:02;12.00;94.20
20337;DHT22;10326;53.660;10.200;2023-11-21T01:10:29;12.00;94.40
20337;DHT22;10326;53.660;10.200;2023-11-21T01:12:57;12.00;94.20
20337;DHT22;10326;53.660;10.200;2023-11-21T01:15:25;11.90;94.20
20337;DHT22;10326;53.660;10.200;2023-11-21T01:17:52;11.90;94.10
20337;DHT22;10326;53.660;10.200;2023-11-21T01:20:21;11.90;94.10
20337;DHT22;10326;53.660;10.200;2023-11-21T01:22:48;11.80;94.10
20337;DHT22;10326;53.660;10.200;2023-11-21T01:25:15;11.80;94.10
20337;DHT22;10326;53.660;10.200;2023-11-21T01:27:43;11.80;94.10
20337;DHT22;10326;53.660;10.200;2023-11-21T01:30:10;11.80;94.10
20337;DHT22;10326;53.660;10.200;2023-11-21T01:32:39;11.80;94.10
20337;DHT22;10326;53.660;10.200;2023-11-21T01:35:07;11.70;94.10
20337;DHT22;10326;53.660;10.200;2023-11-21T01:37:35;11.70;94.10
20337;DHT22;10326;53.660;10.200;2023-11-21T01:40:03;11.70;94.10
20337;DHT22;10326;53.660;10.200;2023-11-21T01:42:35;11.60;94.00
20337;DHT22;10326;53.660;10.200;2023-11-21T01:45:02;11.60;94.00
20337;DHT22;10326;53.660;10.200;2023-11-21T01:47:31;11.60;94.00
20337;DHT22;10326;53.660;10.200;2023-11-21T01:50:00;11.70;94.00
20337;DHT22;10326;53.660;10.200;2023-11-21T01:52:30;11.60;93.90
20337;DHT22;10326;53.660;10.200;2023-11-21T01:54:58;11.60;93.90
20337;DHT22;10326;53.660;10.200;2023-11-21T01:57:26;11.60;93.90
20337;DHT22;10326;53.660;10.200;2023-11-21T01:59:54;11.60;93.90
20337;DHT22;10326;53.660;10.200;2023-11-21T02:02:21;11.60;93.90
20337;DHT22;10326;53.660;10.200;2023-11-21T02:04:48;11.50;93.90
20337;DHT22;10326;53.660;10.200;2023-11-21T02:07:17;11.50;93.90
20337;DHT22;10326;53.660;10.200;2023-11-21T02:09:45;11.50;93.90
20337;DHT22;10326;53.660;10.200;2023-11-21T02:12:13;11.50;93.80
20337;DHT22;10326;53.660;10.200;2023-11-21T02:14:41;11.50;93.80
20337;DHT22;10326;53.660;10.200;2023-11-21T02:17:09;11.40;93.80
20337;DHT22;10326;53.660;10.200;2023-11-21T02:19:36;11.40;93.80
20337;DHT22;10326;53.660;10.200;2023-11-21T02:22:04;11.40;93.90
20337;DHT22;10326;53.660;10.200;2023-11-21T02:24:34;11.50;93.90
20337;DHT22;10326;53.660;10.200;2023-11-21T02:27:02;11.40;93.80
20337;DHT22;10326;53.660;10.200;2023-11-21T02:29:30;11.40;93.90
20337;DHT22;10326;53.660;10.200;2023-11-21T02:31:57;11.40;93.80
20337;DHT22;10326;53.660;10.200;2023-11-21T02:34:25;11.40;93.80
20337;DHT22;10326;53.660;10.200;2023-11-21T02:36:52;11.40;93.80
20337;DHT22;10326;53.660;10.200;2023-11-21T02:39:20;11.40;93.80
20337;DHT22;10326;53.660;10.200;2023-11-21T02:41:49;11.40;93.80
20337;DHT22;10326;53.660;10.200;2023-11-21T02:44:16;11.40;93.80
20337;DHT22;10326;53.660;10.200;2023-11-21T02:46:43;11.40;93.80
20337;DHT22;10326;53.660;10.200;2023-11-21T02:49:10;11.40;93.70
20337;DHT22;10326;53.660;10.200;2023-11-21T02:51:37;11.40;93.70
20337;DHT22;10326;53.660;10.200;2023-11-21T02:54:06;11.40;93.70
20337;DHT22;10326;53.660;10.200;2023-11-21T02:56:34;11.30;93.60
20337;DHT22;10326;53.660;10.200;2023-11-21T02:59:04;11.30;93.60
20337;DHT22;10326;53.660;10.200;2023-11-21T03:01:31;11.30;93.60
20337;DHT22;10326;53.660;10.200;2023-11-21T03:03:58;11.30;93.60
20337;DHT22;10326;53.660;10.200;2023-11-21T03:06:25;11.30;93.60
20337;DHT22;10326;53.660;10.200;2023-11-21T03:08:52;11.30;93.60
20337;DHT22;10326;53.660;10.200;2023-11-21T03:11:19;11.30;93.60
20337;DHT22;10326;53.660;10.200;2023-11-21T03:13:46;11.30;93.60
20337;DHT22;10326;53.660;10.200;2023-11-21T03:16:16;11.30;93.60
20337;DHT22;10326;53.660;10.200;2023-11-21T03:18:45;11.30;93.60
20337;DHT22;10326;53.660;10.200;2023-11-21T03:21:12;11.20;93.60
20337;DHT22;10326;53.660;10.200;2023-11-21T03:23:39;11.20;93.60
20337;DHT22;10326;53.660;10.200;2023-11-21T03:26:06;11.20;93.60
20337;DHT22;10326;53.660;10.200;2023-11-21T03:28:38;11.20;93.60
20337;DHT22;10326;53.660;10.200;2023-11-21T03:31:06;11.20;93.50
20337;DHT22;10326;53.660;10.200;2023-11-21T03:33:35;11.20;93.50
20337;DHT22;10326;53.660;10.200;2023-11-21T03:36:03;11.20;93.60
20337;DHT22;10326;53.660;10.200;2023-11-21T03:38:30;11.20;93.60
20337;DHT22;10326;53.660;10.200;2023-11-21T03:40:57;11.20;93.60
20337;DHT22;10326;53.660;10.200;2023-11-21T03:43:27;11.10;93.50
20337;DHT22;10326;53.660;10.200;2023-11-21T03:45:54;11.20;93.50
20337;DHT22;10326;53.660;10.200;2023-11-21T03:48:22;11.10;93.50
20337;DHT22;10326;53.660;10.200;2023-11-21T03:50:50;11.10;93.50
20337;DHT22;10326;53.660;10.200;2023-11-21T03:53:17;11.10;93.50
20337;DHT22;10326;53.660;10.200;2023-11-21T03:55:44;11.10;93.50
20337;DHT22;10326;53.660;10.200;2023-11-21T03:58:12;11.10;93.50
20337;DHT22;10326;53.660;10.200;2023-11-21T04:00:39;11.10;93.50
20337;DHT22;10326;53.660;10.200;2023-11-21T04:03:06;11.10;93.50
20337;DHT22;10326;53.660;10.200;2023-11-21T04:05:33;11.00;93.50
20337;DHT22;10326;53.660;10.200;2023-11-21T04:08:01;11.00;93.50
20337;DHT22;10326;53.660;10.200;2023-11-21T04:10:28;11.10;93.50
20337;DHT22;10326;53.660;10.200;2023-11-21T04:12:55;11.00;93.50
20337;DHT22;10326;53.660;10.200;2023-11-21T04:15:23;11.10;93.50
20337;DHT22;10326;53.660;10.200;2023-11-21T04:17:50;11.10;93.50
20337;DHT22;10326;53.660;10.200;2023-11-21T04:20:17;11.10;93.50
20337;DHT22;10326;53.660;10.200;2023-11-21T04:22:44;11.10;93.50
20337;DHT22;10326;53.660;10.200;2023-11-21T04:25:14;11.00;93.50
20337;DHT22;10326;53.660;10.200;2023-11-21T04:27:42;11.00;93.50
20337;DHT22;10326;53.660;10.200;2023-11-21T04:30:11;11.00;93.50
20337;DHT22;10326;53.660;10.200;2023-11-21T04:32:39;11.00;93.50
20337;DHT22;10326;53.660;10.200;2023-11-21T04:35:08;11.00;93.50
20337;DHT22;10326;53.660;10.200;2023-11-21T04:37:35;11.00;93.50
20337;DHT22;10326;53.660;10.200;2023-11-21T04:40:03;11.10;93.50
20337;DHT22;10326;53.660;10.200;2023-11-21T04:42:34;11.10;93.50
20337;DHT22;10326;53.660;10.200;2023-11-21T04:45:02;11.10;93.50
20337;DHT22;10326;53.660;10.200;2023-11-21T04:47:33;11.00;93.50
20337;DHT22;10326;53.660;10.200;2023-11-21T04:50:00;11.10;93.50
20337;DHT22;10326;53.660;10.200;2023-11-21T04:52:28;11.10;93.50
20337;DHT22;10326;53.660;10.200;2023-11-21T04:54:55;11.10;93.50
20337;DHT22;10326;53.660;10.200;2023-11-21T04:57:24;11.10;93.50
20337;DHT22;10326;53.660;10.200;2023-11-21T04:59:52;11.00;93.40
20337;DHT22;10326;53.660;10.200;2023-11-21T05:02:20;11.00;93.40
20337;DHT22;10326;53.660;10.200;2023-11-21T05:04:47;11.10;93.40
20337;DHT22;10326;53.660;10.200;2023-11-21T05:07:14;11.00;93.40
20337;DHT22;10326;53.660;10.200;2023-11-21T05:09:42;11.10;93.40
20337;DHT22;10326;53.660;10.200;2023-11-21T05:12:11;11.00;93.40
20337;DHT22;10326;53.660;10.200;2023-11-21T05:14:40;11.00;93.40
20337;DHT22;10326;53.660;10.200;2023-11-21T05:17:08;11.00;93.40
20337;DHT22;10326;53.660;10.200;2023-11-21T05:19:36;11.00;93.40
20337;DHT22;10326;53.660;10.200;2023-11-21T05:22:05;11.00;93.30
20337;DHT22;10326;53.660;10.200;2023-11-21T05:24:32;11.00;93.30
20337;DHT22;10326;53.660;10.200;2023-11-21T05:26:59;11.00;93.40
20337;DHT22;10326;53.660;10.200;2023-11-21T05:29:26;11.00;93.40
20337;DHT22;10326;53.660;10.200;2023-11-21T05:31:53;11.00;93.40
20337;DHT22;10326;53.660;10.200;2023-11-21T05:34:21;11.00;93.40
20337;DHT22;10326;53.660;10.200;2023-11-21T05:36:49;11.00;93.30
20337;DHT22;10326;53.660;10.200;2023-11-21T05:39:16;11.00;93.30
20337;DHT22;10326;53.660;10.200;2023-11-21T05:41:45;11.00;93.30
20337;DHT22;10326;53.660;10.200;2023-11-21T05:44:12;11.00;93.30
20337;DHT22;10326;53.660;10.200;2023-11-21T05:46:40;11.00;93.30
20337;DHT22;10326;53.660;10.200;2023-11-21T05:49:08;11.00;93.30
20337;DHT22;10326;53.660;10.200;2023-11-21T05:51:37;11.00;93.30
20337;DHT22;10326;53.660;10.200;2023-11-21T05:54:06;11.00;93.30
20337;DHT22;10326;53.660;10.200;2023-11-21T05:56:33;11.00;93.30
20337;DHT22;10326;53.660;10.200;2023-11-21T05:59:01;11.00;93.30
20337;DHT22;10326;53.660;10.200;2023-11-21T06:01:29;11.00;93.20
20337;DHT22;10326;53.660;10.200;2023-11-21T06:03:56;11.00;93.20
20337;DHT22;10326;53.660;10.200;2023-11-21T06:06:23;11.00;93.20
20337;DHT22;10326;53.660;10.200;2023-11-21T06:08:52;11.00;93.20
20337;DHT22;10326;53.660;10.200;2023-11-21T06:11:19;10.90;93.20
20337;DHT22;10326;53.660;10.200;2023-11-21T06:13:47;11.00;93.20
20337;DHT22;10326;53.660;10.200;2023-11-21T06:16:15;11.00;93.20
20337;DHT22;10326;53.660;10.200;2023-11-21T06:18:45;11.00;93.20
20337;DHT22;10326;53.660;10.200;2023-11-21T06:21:13;10.90;93.20
20337;DHT22;10326;53.660;10.200;2023-11-21T06:23:42;11.00;93.20
20337;DHT22;10326;53.660;10.200;2023-11-21T06:26:11;10.90;93.20
20337;DHT22;10326;53.660;10.200;2023-11-21T06:28:38;10.90;93.20
20337;DHT22;10326;53.660;10.200;2023-11-21T06:31:05;11.00;93.20
20337;DHT22;10326;53.660;10.200;2023-11-21T06:33:33;10.90;93.20
20337;DHT22;10326;53.660;10.200;2023-11-21T06:36:00;11.00;93.20
20337;DHT22;10326;53.660;10.200;2023-11-21T06:38:28;11.00;93.20
20337;DHT22;10326;53.660;10.200;2023-11-21T06:40:58;11.00;93.20
20337;DHT22;10326;53.660;10.200;2023-11-21T06:43:29;10.90;93.20
20337;DHT22;10326;53.660;10.200;2023-11-21T06:45:56;11.00;93.20
20337;DHT22;10326;53.660;10.200;2023-11-21T06:48:24;11.00;93.20
20337;DHT22;10326;53.660;10.200;2023-11-21T06:50:51;11.00;93.20
20337;DHT22;10326;53.660;10.200;2023-11-21T06:53:19;10.90;93.40
20337;DHT22;10326;53.660;10.200;2023-11-21T06:55:46;11.00;93.20
20337;DHT22;10326;53.660;10.200;2023-11-21T06:58:13;11.00;93.20
20337;DHT22;10326;53.660;10.200;2023-11-21T07:00:42;10.90;93.10
20337;DHT22;10326;53.660;10.200;2023-11-21T07:03:14;10.90;93.10
20337;DHT22;10326;53.660;10.200;2023-11-21T07:05:41;10.90;93.10
20337;DHT22;10326;53.660;10.200;2023-11-21T07:08:08;10.90;93.10
20337;DHT22;10326;53.660;10.200;2023-11-21T07:10:35;11.00;93.10
20337;DHT22;10326;53.660;10.200;2023-11-21T07:13:03;11.00;93.10
20337;DHT22;10326;53.660;10.200;2023-11-21T07:15:30;10.90;93.00
20337;DHT22;10326;53.660;10.200;2023-11-21T07:17:59;10.90;93.10
20337;DHT22;10326;53.660;10.200;2023-11-21T07:20:26;10.90;93.00
20337;DHT22;10326;53.660;10.200;2023-11-21T07:22:55;10.90;93.00
20337;DHT22;10326;53.660;10.200;2023-11-21T07:25:23;10.90;93.20
20337;DHT22;10326;53.660;10.200;2023-11-21T07:27:50;11.00;93.00
20337;DHT22;10326;53.660;10.200;2023-11-21T07:30:18;10.90;93.00
20337;DHT22;10326;53.660;10.200;2023-11-21T07:32:45;10.90;93.00
20337;DHT22;10326;53.660;10.200;2023-11-21T07:35:15;10.90;93.00
20337;DHT22;10326;53.660;10.200;2023-11-21T07:37:42;10.90;92.90
20337;DHT22;10326;53.660;10.200;2023-11-21T07:40:10;10.90;92.90
20337;DHT22;10326;53.660;10.200;2023-11-21T07:42:38;10.90;92.90
20337;DHT22;10326;53.660;10.200;2023-11-21T07:45:06;10.90;92.90
20337;DHT22;10326;53.660;10.200;2023-11-21T07:47:34;10.90;92.90
20337;DHT22;10326;53.660;10.200;2023-11-21T07:50:02;10.90;92.90
20337;DHT22;10326;53.660;10.200;2023-11-21T07:52:31;10.90;92.90
20337;DHT22;10326;53.660;10.200;2023-11-21T07:54:58;10.90;92.90
20337;DHT22;10326;53.660;10.200;2023-11-21T07:57:25;10.90;92.90
20337;DHT22;10326;53.660;10.200;2023-11-21T07:59:52;10.90;92.90
20337;DHT22;10326;53.660;10.200;2023-11-21T08:02:19;10.90;92.90
20337;DHT22;10326;53.660;10.200;2023-11-21T08:04:46;10.90;92.90
20337;DHT22;10326;53.660;10.200;2023-11-21T08:07:15;10.90;92.90
20337;DHT22;10326;53.660;10.200;2023-11-21T08:09:43;10.90;92.90
20337;DHT22;10326;53.660;10.200;2023-11-21T08:12:12;10.90;92.90
20337;DHT22;10326;53.660;10.200;2023-11-21T08:14:40;10.90;92.90
20337;DHT22;10326;53.660;10.200;2023-11-21T08:17:07;10.90;92.80
20337;DHT22;10326;53.660;10.200;2023-11-21T08:19:36;10.90;92.80
20337;DHT22;10326;53.660;10.200;2023-11-21T08:22:03;10.90;92.90
20337;DHT22;10326;53.660;10.200;2023-11-21T08:24:33;11.00;92.90
20337;DHT22;10326;53.660;10.200;2023-11-21T08:27:01;11.00;92.90
20337;DHT22;10326;53.660;10.200;2023-11-21T08:29:29;10.90;92.80
20337;DHT22;10326;53.660;10.200;2023-11-21T08:31:57;10.90;92.80
20337;DHT22;10326;53.660;10.200;2023-11-21T08:34:25;11.00;92.80
20337;DHT22;10326;53.660;10.200;2023-11-21T08:36:53;10.90;92.80
20337;DHT22;10326;53.660;10.200;2023-11-21T08:39:21;10.90;92.80
20337;DHT22;10326;53.660;10.200;2023-11-21T08:41:50;10.90;92.80
20337;DHT22;10326;53.660;10.200;2023-11-21T08:44:19;10.90;92.80
20337;DHT22;10326;53.660;10.200;2023-11-21T08:46:47;10.90;92.80
20337;DHT22;10326;53.660;10.200;2023-11-21T08:49:14;10.90;92.80
20337;DHT22;10326;53.660;10.200;2023-11-21T08:51:44;10.90;92.90
20337;DHT22;10326;53.660;10.200;2023-11-21T08:54:11;10.90;92.90
20337;DHT22;10326;53.660;10.200;2023-11-21T08:56:38;10.90;92.90
20337;DHT22;10326;53.660;10.200;2023-11-21T08:59:06;10.90;92.90
20337;DHT22;10326;53.660;10.200;2023-11-21T09:01:35;10.90;93.00
20337;DHT22;10326;53.660;10.200;2023-11-21T09:04:03;10.90;93.00
20337;DHT22;10326;53.660;10.200;2023-11-21T09:06:30;10.90;93.00
20337;DHT22;10326;53.660;10.200;2023-11-21T09:08:57;10.90;93.00
20337;DHT22;10326;53.660;10.200;2023-11-21T09:11:24;10.90;93.00
20337;DHT22;10326;53.660;10.200;2023-11-21T09:13:57;10.90;93.10
20337;DHT22;10326;53.660;10.200;2023-11-21T09:16:24;10.90;93.10
20337;DHT22;10326;53.660;10.200;2023-11-21T09:18:52;10.90;93.10
20337;DHT22;10326;53.660;10.200;2023-11-21T09:21:20;10.90;93.10
20337;DHT22;10326;53.660;10.200;2023-11-21T09:23:48;10.90;93.20
20337;DHT22;10326;53.660;10.200;2023-11-21T09:26:16;10.90;93.20
20337;DHT22;10326;53.660;10.200;2023-11-21T09:28:43;11.00;93.20
20337;DHT22;10326;53.660;10.200;2023-11-21T09:31:13;11.00;93.20
20337;DHT22;10326;53.660;10.200;2023-11-21T09:33:42;10.90;93.20
20337;DHT22;10326;53.660;10.200;2023-11-21T09:36:12;11.00;93.20
20337;DHT22;10326;53.660;10.200;2023-11-21T09:38:40;11.00;93.20
20337;DHT22;10326;53.660;10.200;2023-11-21T09:41:15;11.00;93.20
20337;DHT22;10326;53.660;10.200;2023-11-21T09:43:46;11.00;93.20
20337;DHT22;10326;53.660;10.200;2023-11-21T09:46:14;11.00;93.20
20337;DHT22;10326;53.660;10.200;2023-11-21T09:48:49;11.00;93.20
20337;DHT22;10326;53.660;10.200;2023-11-21T09:51:23;11.00;93.10
20337;DHT22;10326;53.660;10.200;2023-11-21T09:53:57;11.00;93.10
20337;DHT22;10326;53.660;10.200;2023-11-21T09:56:27;11.00;93.20
20337;DHT22;10326;53.660;10.200;2023-11-21T09:58:57;11.00;93.20
20337;DHT22;10326;53.660;10.200;2023-11-21T10:01:32;11.00;93.20
20337;DHT22;10326;53.660;10.200;2023-11-21T10:04:00;11.00;93.00
20337;DHT22;10326;53.660;10.200;2023-11-21T10:06:30;11.00;93.00
20337;DHT22;10326;53.660;10.200;2023-11-21T10:08:59;11.00;93.00
20337;DHT22;10326;53.660;10.200;2023-11-21T10:11:27;11.00;93.00
20337;DHT22;10326;53.660;10.200;2023-11-21T10:13:55;11.00;92.90
20337;DHT22;10326;53.660;10.200;2023-11-21T10:16:26;11.10;93.00
20337;DHT22;10326;53.660;10.200;2023-11-21T10:18:54;11.00;92.90
20337;DHT22;10326;53.660;10.200;2023-11-21T10:21:22;11.00;92.90
20337;DHT22;10326;53.660;10.200;2023-11-21T10:23:53;11.00;92.90
20337;DHT22;10326;53.660;10.200;2023-11-21T10:26:22;11.10;93.00
20337;DHT22;10326;53.660;10.200;2023-11-21T10:28:59;11.00;93.00
20337;DHT22;10326;53.660;10.200;2023-11-21T10:31:27;11.10;93.00
20337;DHT22;10326;53.660;10.200;2023-11-21T10:33:57;11.10;93.00
20337;DHT22;10326;53.660;10.200;2023-11-21T10:36:43;11.10;92.90
20337;DHT22;10326;53.660;10.200;2023-11-21T10:39:14;11.10;92.80
20337;DHT22;10326;53.660;10.200;2023-11-21T10:41:44;11.10;92.70
20337;DHT22;10326;53.660;10.200;2023-11-21T10:44:14;11.10;92.70
20337;DHT22;10326;53.660;10.200;2023-11-21T10:49:18;11.10;92.70
20337;DHT22;10326;53.660;10.200;2023-11-21T10:51:45;11.10;92.70
20337;DHT22;10326;53.660;10.200;2023-11-21T10:54:19;11.10;92.70
20337;DHT22;10326;53.660;10.200;2023-11-21T10:56:49;11.10;92.60
20337;DHT22;10326;53.660;10.200;2023-11-21T10:59:17;11.10;92.70
20337;DHT22;10326;53.660;10.200;2023-11-21T11:01:47;11.10;92.80
20337;DHT22;10326;53.660;10.200;2023-11-21T11:04:18;11.10;92.80
20337;DHT22;10326;53.660;10.200;2023-11-21T11:06:51;11.10;92.70
20337;DHT22;10326;53.660;10.200;2023-11-21T11:09:23;11.10;92.60
20337;DHT22;10326;53.660;10.200;2023-11-21T11:11:51;11.10;92.60
20337;DHT22;10326;53.660;10.200;2023-11-21T11:14:20;11.10;92.60
20337;DHT22;10326;53.660;10.200;2023-11-21T11:16:52;11.10;92.60
20337;DHT22;10326;53.660;10.200;2023-11-21T11:19:20;11.10;92.60
20337;DHT22;10326;53.660;10.200;2023-11-21T11:21:53;11.10;92.60
20337;DHT22;10326;53.660;10.200;2023-11-21T11:24:38;11.10;92.50
20337;DHT22;10326;53.660;10.200;2023-11-21T11:27:21;11.10;92.30
20337;DHT22;10326;53.660;10.200;2023-11-21T11:29:58;11.10;92.40
20337;DHT22;10326;53.660;10.200;2023-11-21T11:32:36;11.10;92.50
20337;DHT22;10326;53.660;10.200;2023-11-21T11:35:12;11.10;92.50
20337;DHT22;10326;53.660;10.200;2023-11-21T11:37:44;11.10;92.50
20337;DHT22;10326;53.660;10.200;2023-11-21T11:40:13;11.10;92.50
20337;DHT22;10326;53.660;10.200;2023-11-21T11:42:56;11.10;92.40
20337;DHT22;10326;53.660;10.200;2023-11-21T11:45:32;11.10;92.20
20337;DHT22;10326;53.660;10.200;2023-11-21T11:48:02;11.10;92.30
20337;DHT22;10326;53.660;10.200;2023-11-21T11:50:32;11.00;92.30
20337;DHT22;10326;53.660;10.200;2023-11-21T11:53:12;11.00;92.30
20337;DHT22;10326;53.660;10.200;2023-11-21T11:55:41;11.00;92.20
20337;DHT22;10326;53.660;10.200;2023-11-21T11:58:09;11.00;92.40
20337;DHT22;10326;53.660;10.200;2023-11-21T12:00:37;11.00;92.40
20337;DHT22;10326;53.660;10.200;2023-11-21T12:03:07;11.00;92.30
20337;DHT22;10326;53.660;10.200;2023-11-21T12:05:35;11.00;92.30
20337;DHT22;10326;53.660;10.200;2023-11-21T12:08:05;11.00;92.30
20337;DHT22;10326;53.660;10.200;2023-11-21T12:10:34;11.00;92.20
20337;DHT22;10326;53.660;10.200;2023-11-21T12:13:07;11.00;92.20
20337;DHT22;10326;53.660;10.200;2023-11-21T12:15:36;11.00;92.00
20337;DHT22;10326;53.660;10.200;2023-11-21T12:18:05;11.00;92.10
20337;DHT22;10326;53.660;10.200;2023-11-21T12:20:32;11.00;92.10
20337;DHT22;10326;53.660;10.200;2023-11-21T12:23:05;10.90;92.10
20337;DHT22;10326;53.660;10.200;2023-11-21T12:25:32;10.90;92.10
20337;DHT22;10326;53.660;10.200;2023-11-21T12:28:00;11.00;92.20
20337;DHT22;10326;53.660;10.200;2023-11-21T12:30:30;10.90;92.20
20337;DHT22;10326;53.660;10.200;2023-11-21T12:32:59;10.90;92.20
20337;DHT22;10326;53.660;10.200;2023-11-21T12:35:29;10.90;92.20
20337;DHT22;10326;53.660;10.200;2023-11-21T12:37:59;10.90;92.20
20337;DHT22;10326;53.660;10.200;2023-11-21T12:40:28;10.90;92.30
20337;DHT22;10326;53.660;10.200;2023-11-21T12:42:58;10.90;92.30
20337;DHT22;10326;53.660;10.200;2023-11-21T12:45:29;10.90;92.30
20337;DHT22;10326;53.660;10.200;2023-11-21T12:47:58;10.90;92.30
20337;DHT22;10326;53.660;10.200;2023-11-21T12:50:29;10.80;92.20
20337;DHT22;10326;53.660;10.200;2023-11-21T12:53:02;10.80;92.20
20337;DHT22;10326;53.660;10.200;2023-11-21T12:55:31;10.80;92.30
20337;DHT22;10326;53.660;10.200;2023-11-21T12:58:03;10.80;92.30
20337;DHT22;10326;53.660;10.200;2023-11-21T13:00:36;10.80;92.30
20337;DHT22;10326;53.660;10.200;2023-11-21T13:03:08;10.70;92.30
20337;DHT22;10326;53.660;10.200;2023-11-21T13:05:39;10.70;92.40
20337;DHT22;10326;53.660;10.200;2023-11-21T13:08:09;10.70;92.30
20337;DHT22;10326;53.660;10.200;2023-11-21T13:10:39;10.70;92.40
20337;DHT22;10326;53.660;10.200;2023-11-21T13:13:10;10.70;92.40
20337;DHT22;10326;53.660;10.200;2023-11-21T13:15:49;10.70;92.40
20337;DHT22;10326;53.660;10.200;2023-11-21T13:18:18;10.70;92.40
20337;DHT22;10326;53.660;10.200;2023-11-21T13:20:47;10.60;92.40
20337;DHT22;10326;53.660;10.200;2023-11-21T13:23:15;10.60;92.40
20337;DHT22;10326;53.660;10.200;2023-11-21T13:25:43;10.60;92.40
20337;DHT22;10326;53.660;10.200;2023-11-21T13:28:11;10.60;92.40
20337;DHT22;10326;53.660;10.200;2023-11-21T13:30:41;10.60;92.40
20337;DHT22;10326;53.660;10.200;2023-11-21T13:33:11;10.60;92.30
20337;DHT22;10326;53.660;10.200;2023-11-21T13:35:43;10.60;92.30
20337;DHT22;10326;53.660;10.200;2023-11-21T13:38:15;10.60;92.30
20337;DHT22;10326;53.660;10.200;2023-11-21T13:40:47;10.60;92.30
20337;DHT22;10326;53.660;10.200;2023-11-21T13:43:20;10.60;92.50
20337;DHT22;10326;53.660;10.200;2023-11-21T13:45:52;10.50;92.20
20337;DHT22;10326;53.660;10.200;2023-11-21T13:48:29;10.50;92.20
20337;DHT22;10326;53.660;10.200;2023-11-21T13:51:09;10.50;92.10
20337;DHT22;10326;53.660;10.200;2023-11-21T13:53:44;10.50;92.10
20337;DHT22;10326;53.660;10.200;2023-11-21T13:56:16;10.50;92.00
20337;DHT22;10326;53.660;10.200;2023-11-21T13:58:51;10.50;91.90
20337;DHT22;10326;53.660;10.200;2023-11-21T14:01:25;10.40;91.80
20337;DHT22;10326;53.660;10.200;2023-11-21T14:04:12;10.40;91.80
20337;DHT22;10326;53.660;10.200;2023-11-21T14:06:46;10.40;91.80
20337;DHT22;10326;53.660;10.200;2023-11-21T14:09:15;10.40;91.80
20337;DHT22;10326;53.660;10.200;2023-11-21T14:11:52;10.40;91.80
20337;DHT22;10326;53.660;10.200;2023-11-21T14:14:22;10.30;91.80
20337;DHT22;10326;53.660;10.200;2023-11-21T14:16:51;10.30;91.80
20337;DHT22;10326;53.660;10.200;2023-11-21T14:19:22;10.30;91.70
20337;DHT22;10326;53.660;10.200;2023-11-21T14:21:54;10.30;91.70
20337;DHT22;10326;53.660;10.200;2023-11-21T14:24:21;10.20;91.70
20337;DHT22;10326;53.660;10.200;2023-11-21T14:26:50;10.20;91.70
20337;DHT22;10326;53.660;10.200;2023-11-21T14:29:20;10.20;91.70
20337;DHT22;10326;53.660;10.200;2023-11-21T14:31:58;10.20;91.80
20337;DHT22;10326;53.660;10.200;2023-11-21T14:34:36;10.20;91.80
20337;DHT22;10326;53.660;10.200;2023-11-21T14:37:04;10.20;92.00
20337;DHT22;10326;53.660;10.200;2023-11-21T14:39:31;10.20;91.80
20337;DHT22;10326;53.660;10.200;2023-11-21T14:42:04;10.20;91.70
20337;DHT22;10326;53.660;10.200;2023-11-21T14:44:33;10.20;91.80
20337;DHT22;10326;53.660;10.200;2023-11-21T14:47:04;10.10;91.80
20337;DHT22;10326;53.660;10.200;2023-11-21T14:49:41;10.20;91.80
20337;DHT22;10326;53.660;10.200;2023-11-21T14:52:18;10.10;91.70
20337;DHT22;10326;53.660;10.200;2023-11-21T14:54:58;10.20;91.70
20337;DHT22;10326;53.660;10.200;2023-11-21T14:57:46;10.10;91.70
20337;DHT22;10326;53.660;10.200;2023-11-21T15:00:16;10.10;91.70
20337;DHT22;10326;53.660;10.200;2023-11-21T15:03:06;10.10;91.80
20337;DHT22;10326;53.660;10.200;2023-11-21T15:05:35;10.10;91.80
20337;DHT22;10326;53.660;10.200;2023-11-21T15:08:07;10.00;91.80
20337;DHT22;10326;53.660;10.200;2023-11-21T15:11:13;10.00;91.80
20337;DHT22;10326;53.660;10.200;2023-11-21T15:14:10;10.00;91.80
20337;DHT22;10326;53.660;10.200;2023-11-21T15:16:41;9.90;91.80
20337;DHT22;10326;53.660;10.200;2023-11-21T15:19:14;9.90;91.80
20337;DHT22;10326;53.660;10.200;2023-11-21T15:21:45;9.90;91.70
20337;DHT22;10326;53.660;10.200;2023-11-21T15:24:13;9.90;91.70
20337;DHT22;10326;53.660;10.200;2023-11-21T15:26:41;9.80;91.70
20337;DHT22;10326;53.660;10.200;2023-11-21T15:29:09;9.80;91.80
20337;DHT22;10326;53.660;10.200;2023-11-21T15:31:38;9.80;91.80
20337;DHT22;10326;53.660;10.200;2023-11-21T15:36:57;9.70;91.80